createdAt,value
2017-12-01T00:02:09.794Z,10.50
2017-12-01T00:04:37.264Z,9.18
2017-12-01T00:07:04.989Z,9.20
2017-12-01T00:09:32.459Z,10.40
2017-12-01T00:11:59.927Z,10.20
2017-12-01T00:14:27.406Z,10.27
2017-12-01T00:16:54.859Z,10.75
2017-12-01T00:19:22.317Z,11.70
2017-12-01T00:21:49.777Z,10.13
2017-12-01T00:24:17.234Z,10.30
2017-12-01T00:26:44.695Z,10.23
2017-12-01T00:29:12.915Z,10.48
2017-12-01T00:31:40.429Z,9.77
2017-12-01T00:34:07.876Z,9.40
2017-12-01T00:36:35.334Z,10.50
2017-12-01T00:39:02.857Z,9.57
2017-12-01T00:41:30.293Z,10.95
2017-12-01T00:43:57.801Z,9.40
2017-12-01T00:46:25.243Z,9.77
2017-12-01T00:48:52.700Z,10.68
2017-12-01T00:51:20.900Z,10.55
2017-12-01T00:53:48.379Z,11.12
2017-12-01T00:56:15.823Z,11.05
2017-12-01T00:58:43.263Z,10.10
2017-12-01T01:01:10.708Z,9.95
2017-12-01T01:03:38.248Z,10.00
2017-12-01T01:06:05.692Z,9.68
2017-12-01T01:08:33.122Z,9.77
2017-12-01T01:11:00.560Z,10.50
2017-12-01T01:13:28.009Z,10.05
2017-12-01T01:15:55.444Z,10.35
2017-12-01T01:18:22.894Z,10.93
2017-12-01T01:20:50.334Z,10.35
2017-12-01T01:23:17.797Z,11.45
2017-12-01T01:25:45.393Z,10.60
2017-12-01T01:28:12.890Z,11.30
2017-12-01T01:30:40.337Z,10.13
2017-12-01T01:33:07.772Z,11.12
2017-12-01T01:35:35.207Z,10.63
2017-12-01T01:38:02.663Z,11.05
2017-12-01T01:40:30.112Z,12.02
2017-12-01T01:42:57.652Z,11.60
2017-12-01T01:45:25.092Z,11.02
2017-12-01T01:47:52.537Z,12.02
2017-12-01T01:50:20.072Z,10.40
2017-12-01T01:52:47.507Z,11.68
2017-12-01T01:55:14.970Z,11.43
2017-12-01T01:57:42.409Z,12.07
2017-12-01T02:00:09.865Z,12.40
2017-12-01T02:02:38.068Z,11.25
2017-12-01T02:05:05.508Z,12.57
2017-12-01T02:07:32.954Z,12.77
2017-12-01T02:10:00.388Z,12.40
2017-12-01T02:12:27.875Z,10.80
2017-12-01T02:14:55.360Z,11.02
2017-12-01T02:17:23.592Z,14.93
2017-12-01T02:19:51.027Z,11.00
2017-12-01T02:22:18.568Z,10.27
2017-12-01T02:24:46.004Z,10.50
2017-12-01T02:27:13.527Z,10.75
2017-12-01T02:29:40.991Z,11.35
2017-12-01T02:32:10.058Z,11.63
2017-12-01T02:34:37.377Z,10.73
2017-12-01T02:37:04.816Z,12.07
2017-12-01T02:39:32.259Z,12.02
2017-12-01T02:41:59.744Z,10.45
2017-12-01T02:44:27.253Z,11.23
2017-12-01T02:46:54.687Z,10.80
2017-12-01T02:49:22.175Z,11.38
2017-12-01T02:51:49.716Z,11.88
2017-12-01T02:54:17.168Z,13.10
2017-12-01T02:56:44.752Z,12.23
2017-12-01T02:59:13.068Z,13.60
2017-12-01T03:01:40.500Z,12.35
2017-12-01T03:04:07.949Z,10.18
2017-12-01T03:06:35.395Z,10.60
2017-12-01T03:09:02.863Z,10.38
2017-12-01T03:11:31.177Z,10.68
2017-12-01T03:13:58.612Z,10.65
2017-12-01T03:16:26.052Z,9.98
2017-12-01T03:18:53.528Z,10.52
2017-12-01T03:21:21.006Z,10.45
2017-12-01T03:23:48.525Z,11.52
2017-12-01T03:26:16.016Z,10.65
2017-12-01T03:28:43.411Z,11.70
2017-12-01T03:31:10.844Z,11.40
2017-12-01T03:33:38.305Z,10.48
2017-12-01T03:36:05.744Z,11.40
2017-12-01T03:38:33.183Z,10.20
2017-12-01T03:41:00.659Z,10.15
2017-12-01T03:43:28.921Z,9.75
2017-12-01T03:45:56.384Z,9.07
2017-12-01T03:48:23.833Z,10.75
2017-12-01T03:50:51.273Z,9.18
2017-12-01T03:53:18.725Z,9.27
2017-12-01T03:55:46.205Z,9.30
2017-12-01T03:58:13.644Z,8.77
2017-12-01T04:00:41.081Z,8.95
2017-12-01T04:03:08.527Z,10.00
2017-12-01T04:05:35.952Z,9.50
2017-12-01T04:08:03.397Z,9.93
2017-12-01T04:10:30.855Z,8.95
2017-12-01T04:12:58.301Z,9.57
2017-12-01T04:15:25.732Z,9.10
2017-12-01T04:17:53.163Z,9.52
2017-12-01T04:20:20.608Z,8.98
2017-12-01T04:22:48.079Z,8.75
2017-12-01T04:25:15.616Z,8.35
2017-12-01T04:27:43.040Z,8.50
2017-12-01T04:30:10.501Z,9.07
2017-12-01T04:32:37.936Z,9.48
2017-12-01T04:35:05.359Z,8.82
2017-12-01T04:37:32.816Z,8.45
2017-12-01T04:40:00.292Z,8.07
2017-12-01T04:42:27.812Z,8.75
2017-12-01T04:44:55.258Z,8.35
2017-12-01T04:47:22.714Z,10.23
2017-12-01T04:49:50.131Z,9.68
2017-12-01T04:52:17.577Z,10.73
2017-12-01T04:54:45.017Z,11.50
2017-12-01T04:57:12.448Z,9.45
2017-12-01T04:59:39.899Z,8.80
2017-12-01T05:02:07.680Z,9.77
2017-12-01T05:04:35.933Z,10.00
2017-12-01T05:07:03.461Z,9.68
2017-12-01T05:09:30.900Z,9.20
2017-12-01T05:11:58.336Z,9.80
2017-12-01T05:14:25.776Z,8.80
2017-12-01T05:16:54.225Z,10.10
2017-12-01T05:19:21.687Z,9.27
2017-12-01T05:21:49.140Z,9.75
2017-12-01T05:24:16.655Z,8.77
2017-12-01T05:26:44.151Z,10.82
2017-12-01T05:29:12.380Z,9.10
2017-12-01T05:31:39.939Z,11.10
2017-12-01T05:34:07.392Z,10.35
2017-12-01T05:36:35.644Z,10.13
2017-12-01T05:39:03.083Z,9.80
2017-12-01T05:41:30.521Z,9.85
2017-12-01T05:43:57.967Z,9.65
2017-12-01T05:46:25.423Z,10.55
2017-12-01T05:48:52.857Z,10.20
2017-12-01T05:51:20.307Z,9.10
2017-12-01T05:53:47.809Z,8.45
2017-12-01T05:56:15.257Z,9.45
2017-12-01T05:58:42.701Z,9.13
2017-12-01T06:01:10.149Z,9.77
2017-12-01T06:03:37.608Z,8.75
2017-12-01T06:06:05.036Z,9.45
2017-12-01T06:08:32.492Z,8.65
2017-12-01T06:11:00.041Z,9.32
2017-12-01T06:13:27.570Z,9.82
2017-12-01T06:15:55.005Z,9.88
2017-12-01T06:18:22.448Z,9.98
2017-12-01T06:20:49.913Z,10.10
2017-12-01T06:23:18.862Z,11.07
2017-12-01T06:25:46.336Z,10.07
2017-12-01T06:28:13.784Z,9.07
2017-12-01T06:30:41.327Z,12.50
2017-12-01T06:33:09.774Z,12.80
2017-12-01T06:35:37.243Z,10.55
2017-12-01T06:38:06.580Z,11.12
2017-12-01T06:40:34.031Z,10.20
2017-12-01T06:43:01.464Z,8.88
2017-12-01T06:45:28.896Z,9.80
2017-12-01T06:47:56.349Z,11.60
2017-12-01T06:50:23.943Z,9.68
2017-12-01T06:52:52.171Z,10.10
2017-12-01T06:55:20.121Z,11.98
2017-12-01T06:57:47.580Z,10.48
2017-12-01T07:00:15.071Z,11.40
2017-12-01T07:02:42.517Z,10.82
2017-12-01T07:05:09.963Z,12.27
2017-12-01T07:07:37.416Z,10.32
2017-12-01T07:10:04.866Z,12.37
2017-12-01T07:12:32.306Z,12.57
2017-12-01T07:14:59.784Z,11.50
2017-12-01T07:17:27.217Z,9.60
2017-12-01T07:19:54.681Z,7.78
2017-12-01T07:22:22.113Z,8.80
2017-12-01T07:24:49.554Z,8.88
2017-12-01T07:27:17.014Z,8.75
2017-12-01T07:29:44.449Z,10.32
2017-12-01T07:32:11.992Z,9.80
2017-12-01T07:34:39.430Z,9.45
2017-12-01T07:37:06.949Z,8.50
2017-12-01T07:39:34.421Z,8.32
2017-12-01T07:42:01.961Z,8.05
2017-12-01T07:44:35.083Z,8.63
2017-12-01T07:47:02.512Z,7.37
2017-12-01T07:49:30.724Z,9.35
2017-12-01T07:51:58.165Z,9.05
2017-12-01T07:54:25.637Z,7.87
2017-12-01T07:56:53.056Z,9.27
2017-12-01T07:59:20.587Z,8.90
2017-12-01T08:01:48.025Z,9.45
2017-12-01T08:04:15.457Z,7.47
2017-12-01T08:06:42.895Z,8.88
2017-12-01T08:09:10.328Z,8.30
2017-12-01T08:11:37.790Z,8.13
2017-12-01T08:14:05.245Z,9.82
2017-12-01T08:16:44.653Z,7.20
2017-12-01T08:19:12.135Z,8.10
2017-12-01T08:24:49.151Z,7.95
2017-12-01T08:27:18.694Z,6.45
2017-12-01T08:29:46.917Z,7.32
2017-12-01T08:32:14.350Z,8.43
2017-12-01T08:34:41.789Z,7.15
2017-12-01T08:37:09.221Z,6.60
2017-12-01T08:39:36.655Z,5.70
2017-12-01T08:42:04.082Z,5.93
2017-12-01T08:44:31.518Z,6.07
2017-12-01T08:46:58.952Z,5.45
2017-12-01T08:49:27.192Z,5.50
2017-12-01T08:51:54.617Z,4.85
2017-12-01T08:54:22.056Z,5.43
2017-12-01T08:56:49.500Z,5.75
2017-12-01T08:59:16.913Z,5.32
2017-12-01T09:01:44.469Z,5.25
2017-12-01T09:04:11.940Z,6.20
2017-12-01T09:06:39.408Z,6.28
2017-12-01T09:09:07.605Z,6.15
2017-12-01T09:11:35.042Z,6.03
2017-12-01T09:14:02.476Z,7.12
2017-12-01T09:16:29.942Z,6.65
2017-12-01T09:18:57.365Z,5.20
2017-12-01T09:21:24.796Z,6.00
2017-12-01T09:23:52.991Z,6.20
2017-12-01T09:26:20.420Z,7.25
2017-12-01T09:28:47.869Z,5.97
2017-12-01T09:31:16.071Z,6.28
2017-12-01T09:33:43.627Z,6.45
2017-12-01T09:36:11.054Z,5.93
2017-12-01T09:38:38.511Z,5.90
2017-12-01T09:41:05.973Z,6.30
2017-12-01T09:43:33.440Z,6.65
2017-12-01T09:46:00.893Z,6.93
2017-12-01T09:48:29.252Z,6.68
2017-12-01T09:50:57.508Z,5.82
2017-12-01T09:53:24.927Z,6.53
2017-12-01T09:55:52.355Z,5.37
2017-12-01T09:58:19.813Z,5.25
2017-12-01T10:00:48.315Z,5.93
2017-12-01T10:03:16.624Z,4.95
2017-12-01T10:05:44.071Z,5.95
2017-12-01T10:08:11.517Z,4.53
2017-12-01T10:10:38.979Z,3.80
2017-12-01T10:13:06.416Z,4.90
2017-12-01T10:15:33.880Z,3.15
2017-12-01T10:18:01.291Z,4.72
2017-12-01T10:20:28.749Z,5.22
2017-12-01T10:22:56.264Z,3.80
2017-12-01T10:25:23.732Z,3.30
2017-12-01T10:27:51.166Z,2.90
2017-12-01T10:30:18.595Z,3.10
2017-12-01T10:32:46.096Z,3.62
2017-12-01T10:35:13.625Z,4.37
2017-12-01T10:37:41.079Z,3.97
2017-12-01T10:40:08.505Z,3.55
2017-12-01T10:42:35.948Z,3.58
2017-12-01T10:45:03.385Z,3.67
2017-12-01T10:47:31.752Z,3.83
2017-12-01T10:49:59.220Z,4.10
2017-12-01T10:52:26.668Z,3.83
2017-12-01T10:54:54.210Z,4.70
2017-12-01T10:57:21.733Z,4.80
2017-12-01T10:59:49.223Z,4.00
2017-12-01T11:02:17.699Z,4.05
2017-12-01T11:04:45.893Z,3.97
2017-12-01T11:07:13.319Z,4.30
2017-12-01T11:09:40.812Z,4.47
2017-12-01T11:12:08.249Z,5.85
2017-12-01T11:14:35.683Z,4.78
2017-12-01T11:17:03.225Z,4.62
2017-12-01T11:19:30.660Z,5.07
2017-12-01T11:21:58.085Z,5.10
2017-12-01T11:24:25.515Z,3.78
2017-12-01T11:26:53.006Z,4.30
2017-12-01T11:29:20.442Z,4.12
2017-12-01T11:31:47.933Z,4.75
2017-12-01T11:34:15.441Z,4.62
2017-12-01T11:36:42.868Z,6.50
2017-12-01T11:39:10.298Z,5.70
2017-12-01T11:41:37.797Z,4.50
2017-12-01T11:44:06.133Z,4.68
2017-12-01T11:46:33.596Z,5.15
2017-12-01T11:49:01.044Z,4.18
2017-12-01T11:51:28.540Z,4.75
2017-12-01T11:53:55.956Z,5.53
2017-12-01T11:56:24.266Z,4.72
2017-12-01T11:58:51.732Z,4.82
2017-12-01T12:01:19.276Z,4.43
2017-12-01T12:03:46.745Z,4.82
2017-12-01T12:06:14.176Z,5.15
2017-12-01T12:08:41.706Z,4.28
2017-12-01T12:11:09.144Z,5.03
2017-12-01T12:13:36.597Z,5.28
2017-12-01T12:16:04.117Z,6.45
2017-12-01T12:18:31.536Z,6.90
2017-12-01T12:20:58.968Z,6.47
2017-12-01T12:23:26.464Z,6.97
2017-12-01T12:25:53.907Z,6.15
2017-12-01T12:28:21.424Z,5.00
2017-12-01T12:30:48.843Z,5.65
2017-12-01T12:33:16.297Z,6.10
2017-12-01T12:35:43.938Z,5.55
2017-12-01T12:38:11.412Z,6.68
2017-12-01T12:40:38.957Z,5.80
2017-12-01T12:43:06.392Z,5.18
2017-12-01T12:45:34.600Z,6.50
2017-12-01T12:48:02.064Z,6.72
2017-12-01T12:50:29.520Z,5.50
2017-12-01T12:52:56.976Z,5.60
2017-12-01T12:55:24.412Z,5.20
2017-12-01T12:57:51.868Z,6.03
2017-12-01T13:00:19.423Z,6.25
2017-12-01T13:02:46.854Z,6.20
2017-12-01T13:05:14.291Z,17.90
2017-12-01T13:07:41.766Z,7.20
2017-12-01T13:10:09.951Z,6.07
2017-12-01T13:12:37.443Z,7.00
2017-12-01T13:15:04.881Z,6.90
2017-12-01T13:17:32.304Z,7.05
2017-12-01T13:19:59.731Z,8.15
2017-12-01T13:22:27.172Z,7.87
2017-12-01T13:24:54.600Z,7.40
2017-12-01T13:27:22.066Z,7.40
2017-12-01T13:29:49.632Z,8.35
2017-12-01T13:32:17.049Z,8.10
2017-12-01T13:34:44.471Z,6.53
2017-12-01T13:37:11.904Z,6.62
2017-12-01T13:39:39.332Z,5.65
2017-12-01T13:42:06.784Z,7.65
2017-12-01T13:44:34.211Z,6.65
2017-12-01T13:47:01.688Z,6.00
2017-12-01T13:49:29.144Z,7.18
2017-12-01T13:51:57.362Z,6.75
2017-12-01T13:54:24.848Z,8.23
2017-12-01T13:56:52.280Z,6.47
2017-12-01T13:59:19.740Z,6.85
2017-12-01T14:01:47.176Z,6.60
2017-12-01T14:04:15.405Z,6.18
2017-12-01T14:06:42.838Z,6.47
2017-12-01T14:09:10.324Z,6.07
2017-12-01T14:11:37.795Z,6.35
2017-12-01T14:14:05.289Z,6.35
2017-12-01T14:16:32.838Z,6.72
2017-12-01T14:19:00.277Z,7.03
2017-12-01T14:21:27.760Z,6.93
2017-12-01T14:23:56.049Z,6.93
2017-12-01T14:26:23.652Z,7.00
2017-12-01T14:28:51.116Z,5.95
2017-12-01T14:31:18.640Z,5.75
2017-12-01T14:33:46.077Z,7.00
2017-12-01T14:36:13.520Z,7.32
2017-12-01T14:38:40.957Z,7.00
2017-12-01T14:41:09.171Z,6.93
2017-12-01T14:43:36.766Z,7.43
2017-12-01T14:46:04.192Z,7.87
2017-12-01T14:48:32.412Z,9.25
2017-12-01T14:50:59.856Z,8.95
2017-12-01T14:53:27.280Z,8.93
2017-12-01T14:55:55.499Z,10.30
2017-12-01T14:58:23.068Z,9.27
2017-12-01T15:00:50.504Z,9.65
2017-12-01T15:03:17.932Z,9.50
2017-12-01T15:05:45.388Z,10.10
2017-12-01T15:08:12.847Z,10.55
2017-12-01T15:10:40.272Z,12.07
2017-12-01T15:13:07.712Z,10.40
2017-12-01T15:15:35.166Z,10.13
2017-12-01T15:18:02.617Z,10.95
2017-12-01T15:20:30.063Z,11.57
2017-12-01T15:22:57.511Z,11.57
2017-12-01T15:25:24.953Z,12.40
2017-12-01T15:27:52.384Z,13.65
2017-12-01T15:30:19.848Z,13.00
2017-12-01T15:32:47.300Z,14.10
2017-12-01T15:35:14.753Z,15.38
2017-12-01T15:37:43.668Z,16.60
2017-12-01T15:40:11.157Z,16.42
2017-12-01T15:42:38.665Z,14.65
2017-12-01T15:45:06.104Z,16.42
2017-12-01T15:47:33.569Z,15.70
2017-12-01T15:50:01.009Z,14.20
2017-12-01T15:52:28.476Z,14.45
2017-12-01T15:54:56.716Z,15.43
2017-12-01T15:57:24.164Z,15.93
2017-12-01T15:59:51.701Z,14.23
2017-12-01T16:02:19.145Z,13.75
2017-12-01T16:04:46.580Z,14.55
2017-12-01T16:07:14.033Z,12.68
2017-12-01T16:09:41.468Z,14.82
2017-12-01T16:12:08.916Z,14.50
2017-12-01T16:14:36.343Z,13.40
2017-12-01T16:17:03.815Z,15.05
2017-12-01T16:19:31.305Z,12.88
2017-12-01T16:21:58.696Z,13.15
2017-12-01T16:24:26.148Z,14.32
2017-12-01T16:26:54.343Z,14.65
2017-12-01T16:29:21.920Z,13.75
2017-12-01T16:31:49.414Z,15.85
2017-12-01T16:34:17.642Z,17.35
2017-12-01T16:36:45.081Z,15.75
2017-12-01T16:39:12.516Z,16.73
2017-12-01T16:41:39.959Z,16.33
2017-12-01T16:44:07.425Z,16.27
2017-12-01T16:46:34.859Z,17.30
2017-12-01T16:49:02.316Z,18.50
2017-12-01T16:51:29.751Z,17.92
2017-12-01T16:53:57.192Z,17.12
2017-12-01T16:56:24.871Z,18.17
2017-12-01T16:58:53.073Z,18.30
2017-12-01T17:01:20.505Z,18.40
2017-12-01T17:03:47.939Z,21.25
2017-12-01T17:06:15.382Z,19.48
2017-12-01T17:08:42.888Z,22.67
2017-12-01T17:11:10.329Z,20.77
2017-12-01T17:13:37.799Z,20.50
2017-12-01T17:16:05.304Z,19.05
2017-12-01T17:18:32.744Z,21.77
2017-12-01T17:21:00.175Z,21.70
2017-12-01T17:23:27.621Z,21.33
2017-12-01T17:25:55.068Z,21.50
2017-12-01T17:28:23.282Z,19.45
2017-12-01T17:30:50.744Z,20.77
2017-12-01T17:33:18.171Z,20.37
2017-12-01T17:35:45.618Z,21.23
2017-12-01T17:38:13.052Z,19.75
2017-12-01T17:40:40.504Z,20.05
2017-12-01T17:43:07.936Z,19.98
2017-12-01T17:45:35.574Z,18.58
2017-12-01T17:48:03.005Z,18.75
2017-12-01T17:50:30.445Z,17.83
2017-12-01T17:52:57.888Z,19.27
2017-12-01T17:55:25.346Z,20.05
2017-12-01T17:57:53.284Z,19.35
2017-12-01T18:00:21.689Z,18.42
2017-12-01T18:02:49.072Z,19.95
2017-12-01T18:05:16.499Z,21.83
2017-12-01T18:07:44.720Z,19.40
2017-12-01T18:10:12.248Z,21.40
2017-12-01T18:12:39.711Z,20.30
2017-12-01T18:15:08.000Z,22.73
2017-12-01T18:17:36.223Z,19.60
2017-12-01T18:20:03.717Z,20.65
2017-12-01T18:22:31.905Z,20.95
2017-12-01T18:24:59.898Z,19.92
2017-12-01T18:27:27.332Z,20.67
2017-12-01T18:29:55.693Z,19.90
2017-12-01T18:32:23.207Z,19.48
2017-12-01T18:34:50.668Z,21.37
2017-12-01T18:37:18.169Z,22.33
2017-12-01T18:39:45.603Z,22.85
2017-12-01T18:42:13.052Z,22.25
2017-12-01T18:44:40.483Z,22.20
2017-12-01T18:47:07.925Z,23.48
2017-12-01T18:49:35.369Z,23.35
2017-12-01T18:52:02.850Z,23.70
2017-12-01T18:54:30.334Z,23.67
2017-12-01T18:56:57.786Z,24.60
2017-12-01T18:59:25.990Z,20.85
2017-12-01T19:01:53.499Z,22.60
2017-12-01T19:04:21.719Z,23.55
2017-12-01T19:06:49.916Z,22.55
2017-12-01T19:09:17.356Z,24.60
2017-12-01T19:11:44.795Z,22.75
2017-12-01T19:14:12.235Z,22.65
2017-12-01T19:16:39.685Z,24.90
2017-12-01T19:19:07.132Z,24.25
2017-12-01T19:21:34.561Z,22.15
2017-12-01T19:24:02.856Z,22.95
2017-12-01T19:26:30.328Z,25.35
2017-12-01T19:28:57.771Z,25.25
2017-12-01T19:31:25.246Z,23.10
2017-12-01T19:33:53.476Z,24.45
2017-12-01T19:36:22.501Z,25.30
2017-12-01T19:38:49.956Z,25.25
2017-12-01T19:41:17.425Z,24.87
2017-12-01T19:43:44.965Z,24.23
2017-12-01T19:46:12.524Z,25.12
2017-12-01T19:48:39.961Z,25.62
2017-12-01T19:51:07.416Z,24.67
2017-12-01T19:53:34.863Z,24.92
2017-12-01T19:56:02.391Z,24.90
2017-12-01T19:58:29.940Z,24.00
2017-12-01T20:00:57.412Z,25.55
2017-12-01T20:03:25.685Z,25.27
2017-12-01T20:05:53.907Z,24.63
2017-12-01T20:08:22.056Z,25.67
2017-12-01T20:10:49.530Z,24.90
2017-12-01T20:13:17.061Z,25.40
2017-12-01T20:15:44.499Z,26.20
2017-12-01T20:18:11.936Z,26.90
2017-12-01T20:20:39.372Z,24.80
2017-12-01T20:23:06.843Z,25.88
2017-12-01T20:25:35.116Z,25.42
2017-12-01T20:28:02.552Z,23.48
2017-12-01T20:30:30.030Z,23.95
2017-12-01T20:32:57.501Z,26.85
2017-12-01T20:35:25.781Z,27.87
2017-12-01T20:37:53.204Z,25.73
2017-12-01T20:40:20.661Z,26.40
2017-12-01T20:42:48.089Z,27.02
2017-12-01T20:45:15.515Z,26.15
2017-12-01T20:47:42.983Z,26.05
2017-12-01T20:50:10.425Z,23.80
2017-12-01T20:52:37.869Z,25.88
2017-12-01T20:55:05.307Z,23.90
2017-12-01T20:57:32.874Z,25.05
2017-12-01T21:00:01.064Z,25.98
2017-12-01T21:02:28.492Z,27.55
2017-12-01T21:04:55.936Z,25.95
2017-12-01T21:07:23.419Z,27.20
2017-12-01T21:09:51.962Z,25.98
2017-12-01T21:12:19.381Z,24.92
2017-12-01T21:14:46.828Z,25.27
2017-12-01T21:17:14.310Z,26.90
2017-12-01T21:19:41.773Z,25.33
2017-12-01T21:22:09.213Z,24.40
2017-12-01T21:24:36.649Z,23.08
2017-12-01T21:27:04.111Z,25.58
2017-12-01T21:29:31.536Z,26.52
2017-12-01T21:31:59.004Z,28.08
2017-12-01T21:34:27.274Z,24.25
2017-12-01T21:36:55.476Z,24.60
2017-12-01T21:39:22.908Z,25.37
2017-12-01T21:41:50.352Z,25.35
2017-12-01T21:44:17.791Z,25.60
2017-12-01T21:46:45.831Z,24.30
2017-12-01T21:49:13.288Z,25.02
2017-12-01T21:51:40.815Z,25.02
2017-12-01T21:54:09.017Z,24.45
2017-12-01T21:56:36.674Z,24.95
2017-12-01T21:59:04.104Z,24.95
2017-12-01T22:01:32.519Z,24.95
2017-12-01T22:03:59.960Z,25.95
2017-12-01T22:06:28.165Z,26.65
2017-12-01T22:09:08.656Z,26.10
2017-12-01T22:11:36.902Z,31.62
2017-12-01T22:14:04.364Z,24.10
2017-12-01T22:16:32.597Z,25.67
2017-12-01T22:19:00.067Z,29.17
2017-12-01T22:21:28.281Z,24.30
2017-12-01T22:23:55.716Z,25.35
2017-12-01T22:26:23.163Z,26.25
2017-12-01T22:28:50.697Z,28.23
2017-12-01T22:31:18.260Z,27.40
2017-12-01T22:33:45.689Z,28.42
2017-12-01T22:36:13.112Z,27.40
2017-12-01T22:38:40.584Z,25.65
2017-12-01T22:41:08.031Z,28.02
2017-12-01T22:43:36.268Z,26.23
2017-12-01T22:46:03.752Z,26.20
2017-12-01T22:48:31.240Z,28.52
2017-12-01T22:50:58.752Z,30.00
2017-12-01T22:53:26.201Z,30.80
2017-12-01T22:55:53.704Z,28.70
2017-12-01T22:58:21.135Z,28.83
2017-12-01T23:00:48.584Z,31.17
2017-12-01T23:03:16.018Z,28.95
2017-12-01T23:05:43.478Z,27.40
2017-12-01T23:08:11.087Z,29.42
2017-12-01T23:10:39.276Z,27.85
2017-12-01T23:13:06.732Z,27.98
2017-12-01T23:15:35.149Z,31.30
2017-12-01T23:18:03.355Z,30.05
2017-12-01T23:20:30.839Z,29.55
2017-12-01T23:22:58.302Z,29.80
2017-12-01T23:25:25.728Z,26.05
2017-12-01T23:27:53.927Z,29.17
2017-12-01T23:30:21.387Z,26.30
2017-12-01T23:32:48.856Z,27.30
2017-12-01T23:35:16.284Z,26.70
2017-12-01T23:37:43.716Z,27.95
2017-12-01T23:40:11.313Z,27.25
2017-12-01T23:42:39.510Z,26.42
2017-12-01T23:45:07.011Z,27.35
2017-12-01T23:47:34.433Z,26.12
2017-12-01T23:50:01.866Z,26.87
2017-12-01T23:52:29.304Z,28.50
2017-12-01T23:54:56.753Z,25.90
2017-12-01T23:57:24.358Z,27.60
2017-12-01T23:59:51.789Z,26.77
